sensor_id;sensor_type;location;lat;lon;timestamp;pressure;altitude;pressure_sealevel;temperature;humidity
66547;BME280;53400;50.364;14.874;2023-11-19T00:00:54;98962.75;;;2.05;100.00
66547;BME280;53400;50.364;14.874;2023-11-19T00:03:40;98950.34;;;2.06;100.00
66547;BME280;53400;50.364;14.874;2023-11-19T00:06:09;98945.06;;;2.21;100.00
66547;BME280;53400;50.364;14.874;2023-11-19T00:08:36;98931.59;;;2.01;100.00
66547;BME280;53400;50.364;14.874;2023-11-19T00:11:05;98929.03;;;1.93;100.00
66547;BME280;53400;50.364;14.874;2023-11-19T00:13:35;98930.50;;;2.10;100.00
66547;BME280;53400;50.364;14.874;2023-11-19T00:16:01;98927.75;;;1.89;100.00
66547;BME280;53400;50.364;14.874;2023-11-19T00:18:29;98919.19;;;1.72;100.00
66547;BME280;53400;50.364;14.874;2023-11-19T00:20:56;98908.00;;;1.84;100.00
66547;BME280;53400;50.364;14.874;2023-11-19T00:23:22;98898.97;;;1.94;100.00
66547;BME280;53400;50.364;14.874;2023-11-19T00:25:50;98888.75;;;1.76;100.00
66547;BME280;53400;50.364;14.874;2023-11-19T00:28:16;98873.00;;;1.53;100.00
66547;BME280;53400;50.364;14.874;2023-11-19T00:30:45;98870.03;;;1.71;100.00
66547;BME280;53400;50.364;14.874;2023-11-19T00:33:11;98862.56;;;1.89;100.00
66547;BME280;53400;50.364;14.874;2023-11-19T00:35:38;98863.72;;;2.01;100.00
66547;BME280;53400;50.364;14.874;2023-11-19T00:38:04;98874.47;;;2.00;100.00
66547;BME280;53400;50.364;14.874;2023-11-19T00:40:30;98856.63;;;1.72;100.00
66547;BME280;53400;50.364;14.874;2023-11-19T00:42:56;98854.06;;;1.79;100.00
66547;BME280;53400;50.364;14.874;2023-11-19T00:45:22;98857.00;;;1.99;100.00
66547;BME280;53400;50.364;14.874;2023-11-19T00:47:51;98847.31;;;2.06;100.00
66547;BME280;53400;50.364;14.874;2023-11-19T00:50:18;98842.50;;;1.95;100.00
66547;BME280;53400;50.364;14.874;2023-11-19T00:52:44;98840.38;;;2.20;100.00
66547;BME280;53400;50.364;14.874;2023-11-19T00:55:10;98832.97;;;2.30;100.00
66547;BME280;53400;50.364;14.874;2023-11-19T00:57:37;98829.94;;;2.33;100.00
66547;BME280;53400;50.364;14.874;2023-11-19T01:00:05;98828.31;;;2.32;100.00
66547;BME280;53400;50.364;14.874;2023-11-19T01:02:38;98816.41;;;2.06;100.00
66547;BME280;53400;50.364;14.874;2023-11-19T01:05:08;98812.88;;;2.14;100.00
66547;BME280;53400;50.364;14.874;2023-11-19T01:07:34;98815.69;;;2.13;100.00
66547;BME280;53400;50.364;14.874;2023-11-19T01:10:00;98816.63;;;2.05;100.00
66547;BME280;53400;50.364;14.874;2023-11-19T01:12:26;98810.78;;;2.10;100.00
66547;BME280;53400;50.364;14.874;2023-11-19T01:14:52;98820.91;;;2.06;100.00
66547;BME280;53400;50.364;14.874;2023-11-19T01:17:18;98806.19;;;1.67;100.00
66547;BME280;53400;50.364;14.874;2023-11-19T01:19:45;98806.59;;;2.00;100.00
66547;BME280;53400;50.364;14.874;2023-11-19T01:22:12;98791.06;;;1.61;100.00
66547;BME280;53400;50.364;14.874;2023-11-19T01:24:38;98782.97;;;1.63;100.00
66547;BME280;53400;50.364;14.874;2023-11-19T01:27:04;98783.59;;;1.79;100.00
66547;BME280;53400;50.364;14.874;2023-11-19T01:29:30;98772.09;;;2.02;100.00
66547;BME280;53400;50.364;14.874;2023-11-19T01:31:58;98772.09;;;2.02;100.00
66547;BME280;53400;50.364;14.874;2023-11-19T01:34:25;98783.91;;;2.06;100.00
66547;BME280;53400;50.364;14.874;2023-11-19T01:36:50;98781.34;;;2.13;100.00
66547;BME280;53400;50.364;14.874;2023-11-19T01:39:18;98766.59;;;2.03;100.00
66547;BME280;53400;50.364;14.874;2023-11-19T01:41:45;98751.81;;;1.88;100.00
66547;BME280;53400;50.364;14.874;2023-11-19T01:44:13;98760.28;;;1.83;100.00
66547;BME280;53400;50.364;14.874;2023-11-19T01:46:40;98761.44;;;1.95;100.00
66547;BME280;53400;50.364;14.874;2023-11-19T01:49:08;98748.31;;;2.02;100.00
66547;BME280;53400;50.364;14.874;2023-11-19T01:51:35;98737.47;;;1.60;100.00
66547;BME280;53400;50.364;14.874;2023-11-19T01:54:04;98742.44;;;1.70;100.00
66547;BME280;53400;50.364;14.874;2023-11-19T01:56:32;98732.75;;;1.56;100.00
66547;BME280;53400;50.364;14.874;2023-11-19T01:58:58;98718.03;;;1.47;100.00
66547;BME280;53400;50.364;14.874;2023-11-19T02:01:25;98704.63;;;1.33;100.00
66547;BME280;53400;50.364;14.874;2023-11-19T02:03:51;98696.34;;;1.36;100.00
66547;BME280;53400;50.364;14.874;2023-11-19T02:06:17;98696.09;;;1.31;100.00
66547;BME280;53400;50.364;14.874;2023-11-19T02:08:43;98691.88;;;1.52;100.00
66547;BME280;53400;50.364;14.874;2023-11-19T02:11:09;98687.69;;;1.43;100.00
66547;BME280;53400;50.364;14.874;2023-11-19T02:13:45;98684.56;;;1.69;100.00
66547;BME280;53400;50.364;14.874;2023-11-19T02:16:14;98688.00;;;1.69;100.00
66547;BME280;53400;50.364;14.874;2023-11-19T02:18:41;98686.94;;;1.64;100.00
66547;BME280;53400;50.364;14.874;2023-11-19T02:21:11;98685.41;;;1.54;100.00
66547;BME280;53400;50.364;14.874;2023-11-19T02:23:37;98676.16;;;1.44;100.00
66547;BME280;53400;50.364;14.874;2023-11-19T02:26:12;98680.94;;;1.55;100.00
66547;BME280;53400;50.364;14.874;2023-11-19T02:28:41;98672.41;;;1.53;100.00
66547;BME280;53400;50.364;14.874;2023-11-19T02:31:08;98666.75;;;1.56;100.00
66547;BME280;53400;50.364;14.874;2023-11-19T02:33:38;98669.38;;;1.92;100.00
66547;BME280;53400;50.364;14.874;2023-11-19T02:36:05;98670.91;;;2.01;100.00
66547;BME280;53400;50.364;14.874;2023-11-19T02:38:32;98664.97;;;2.21;100.00
66547;BME280;53400;50.364;14.874;2023-11-19T02:40:58;98668.53;;;1.92;100.00
66547;BME280;53400;50.364;14.874;2023-11-19T02:43:25;98655.41;;;1.98;100.00
66547;BME280;53400;50.364;14.874;2023-11-19T02:45:53;98662.75;;;2.03;100.00
66547;BME280;53400;50.364;14.874;2023-11-19T02:48:22;98660.72;;;1.98;100.00
66547;BME280;53400;50.364;14.874;2023-11-19T02:50:48;98653.16;;;1.95;100.00
66547;BME280;53400;50.364;14.874;2023-11-19T02:53:15;98648.25;;;2.14;100.00
66547;BME280;53400;50.364;14.874;2023-11-19T02:55:57;98644.50;;;2.29;100.00
66547;BME280;53400;50.364;14.874;2023-11-19T02:58:32;98628.81;;;2.28;100.00
66547;BME280;53400;50.364;14.874;2023-11-19T03:00:59;98626.72;;;2.17;100.00
66547;BME280;53400;50.364;14.874;2023-11-19T03:03:35;98622.41;;;1.88;100.00
66547;BME280;53400;50.364;14.874;2023-11-19T03:06:06;98609.88;;;1.96;100.00
66547;BME280;53400;50.364;14.874;2023-11-19T03:08:34;98599.66;;;1.87;100.00
66547;BME280;53400;50.364;14.874;2023-11-19T03:11:01;98587.69;;;1.91;100.00
66547;BME280;53400;50.364;14.874;2023-11-19T03:13:27;98589.56;;;1.75;100.00
66547;BME280;53400;50.364;14.874;2023-11-19T03:15:53;98575.81;;;1.80;100.00
66547;BME280;53400;50.364;14.874;2023-11-19T03:18:23;98578.75;;;1.92;100.00
66547;BME280;53400;50.364;14.874;2023-11-19T03:20:49;98592.72;;;2.07;100.00
66547;BME280;53400;50.364;14.874;2023-11-19T03:23:16;98575.25;;;2.13;100.00
66547;BME280;53400;50.364;14.874;2023-11-19T03:25:44;98587.28;;;2.15;100.00
66547;BME280;53400;50.364;14.874;2023-11-19T03:28:11;98594.22;;;1.95;100.00
66547;BME280;53400;50.364;14.874;2023-11-19T03:30:37;98586.16;;;2.03;100.00
66547;BME280;53400;50.364;14.874;2023-11-19T03:33:04;98575.06;;;2.14;100.00
66547;BME280;53400;50.364;14.874;2023-11-19T03:35:32;98564.25;;;2.09;100.00
66547;BME280;53400;50.364;14.874;2023-11-19T03:37:59;98549.31;;;1.95;100.00
66547;BME280;53400;50.364;14.874;2023-11-19T03:40:24;98548.41;;;2.09;100.00
66547;BME280;53400;50.364;14.874;2023-11-19T03:42:51;98538.56;;;1.96;100.00
66547;BME280;53400;50.364;14.874;2023-11-19T03:45:16;98527.38;;;1.94;100.00
66547;BME280;53400;50.364;14.874;2023-11-19T03:47:48;98522.16;;;2.01;100.00
66547;BME280;53400;50.364;14.874;2023-11-19T03:50:16;98522.81;;;1.81;100.00
66547;BME280;53400;50.364;14.874;2023-11-19T03:52:45;98523.28;;;1.92;100.00
66547;BME280;53400;50.364;14.874;2023-11-19T03:55:11;98513.59;;;1.71;100.00
66547;BME280;53400;50.364;14.874;2023-11-19T03:57:38;98525.94;;;1.70;100.00
66547;BME280;53400;50.364;14.874;2023-11-19T04:00:05;98529.13;;;1.59;100.00
66547;BME280;53400;50.364;14.874;2023-11-19T04:02:40;98530.31;;;1.56;100.00
66547;BME280;53400;50.364;14.874;2023-11-19T04:05:07;98529.44;;;1.49;100.00
66547;BME280;53400;50.364;14.874;2023-11-19T04:07:34;98511.25;;;1.61;100.00
66547;BME280;53400;50.364;14.874;2023-11-19T04:10:01;98498.81;;;1.55;100.00
66547;BME280;53400;50.364;14.874;2023-11-19T04:12:28;98496.81;;;1.57;100.00
66547;BME280;53400;50.364;14.874;2023-11-19T04:14:56;98489.91;;;1.56;100.00
66547;BME280;53400;50.364;14.874;2023-11-19T04:17:22;98472.72;;;1.67;100.00
66547;BME280;53400;50.364;14.874;2023-11-19T04:19:49;98463.13;;;1.87;100.00
66547;BME280;53400;50.364;14.874;2023-11-19T04:22:15;98454.72;;;1.49;100.00
66547;BME280;53400;50.364;14.874;2023-11-19T04:24:41;98461.78;;;1.70;100.00
66547;BME280;53400;50.364;14.874;2023-11-19T04:27:11;98453.00;;;1.63;100.00
66547;BME280;53400;50.364;14.874;2023-11-19T04:29:37;98441.44;;;1.64;100.00
66547;BME280;53400;50.364;14.874;2023-11-19T04:32:04;98448.91;;;1.60;100.00
66547;BME280;53400;50.364;14.874;2023-11-19T04:34:31;98449.84;;;1.74;100.00
66547;BME280;53400;50.364;14.874;2023-11-19T04:36:57;98437.09;;;1.84;100.00
66547;BME280;53400;50.364;14.874;2023-11-19T04:39:23;98428.84;;;1.94;100.00
66547;BME280;53400;50.364;14.874;2023-11-19T04:41:50;98418.09;;;1.95;100.00
66547;BME280;53400;50.364;14.874;2023-11-19T04:44:20;98417.19;;;1.81;100.00
66547;BME280;53400;50.364;14.874;2023-11-19T04:46:47;98420.25;;;1.85;100.00
66547;BME280;53400;50.364;14.874;2023-11-19T04:49:13;98418.13;;;2.02;100.00
66547;BME280;53400;50.364;14.874;2023-11-19T04:51:55;98421.44;;;2.11;100.00
66547;BME280;53400;50.364;14.874;2023-11-19T04:54:23;98417.09;;;2.03;100.00
66547;BME280;53400;50.364;14.874;2023-11-19T04:56:50;98411.28;;;2.14;100.00
66547;BME280;53400;50.364;14.874;2023-11-19T04:59:16;98397.03;;;2.15;100.00
66547;BME280;53400;50.364;14.874;2023-11-19T05:01:51;98403.97;;;2.16;100.00
66547;BME280;53400;50.364;14.874;2023-11-19T05:04:17;98406.38;;;2.11;100.00
66547;BME280;53400;50.364;14.874;2023-11-19T05:06:44;98406.84;;;2.21;100.00
66547;BME280;53400;50.364;14.874;2023-11-19T05:09:11;98393.19;;;2.11;100.00
66547;BME280;53400;50.364;14.874;2023-11-19T05:11:39;98399.72;;;2.22;100.00
66547;BME280;53400;50.364;14.874;2023-11-19T05:14:06;98386.69;;;2.14;100.00
66547;BME280;53400;50.364;14.874;2023-11-19T05:16:35;98372.88;;;2.18;100.00
66547;BME280;53400;50.364;14.874;2023-11-19T05:19:02;98379.34;;;2.09;100.00
66547;BME280;53400;50.364;14.874;2023-11-19T05:21:29;98381.00;;;2.10;100.00
66547;BME280;53400;50.364;14.874;2023-11-19T05:23:55;98369.78;;;2.08;100.00
66547;BME280;53400;50.364;14.874;2023-11-19T05:26:29;98363.50;;;2.16;100.00
66547;BME280;53400;50.364;14.874;2023-11-19T05:28:56;98355.00;;;2.20;100.00
66547;BME280;53400;50.364;14.874;2023-11-19T05:31:22;98352.50;;;2.05;100.00
66547;BME280;53400;50.364;14.874;2023-11-19T05:33:48;98347.47;;;2.11;100.00
66547;BME280;53400;50.364;14.874;2023-11-19T05:36:16;98337.06;;;2.09;100.00
66547;BME280;53400;50.364;14.874;2023-11-19T05:38:42;98335.00;;;1.98;100.00
66547;BME280;53400;50.364;14.874;2023-11-19T05:41:10;98345.38;;;2.06;100.00
66547;BME280;53400;50.364;14.874;2023-11-19T05:43:36;98334.81;;;2.06;100.00
66547;BME280;53400;50.364;14.874;2023-11-19T05:46:04;98333.13;;;1.92;100.00
66547;BME280;53400;50.364;14.874;2023-11-19T05:48:30;98323.81;;;1.89;100.00
66547;BME280;53400;50.364;14.874;2023-11-19T05:50:59;98316.94;;;2.01;100.00
66547;BME280;53400;50.364;14.874;2023-11-19T05:53:29;98308.75;;;1.83;100.00
66547;BME280;53400;50.364;14.874;2023-11-19T05:55:56;98307.13;;;1.89;100.00
66547;BME280;53400;50.364;14.874;2023-11-19T05:58:24;98304.66;;;1.80;100.00
66547;BME280;53400;50.364;14.874;2023-11-19T06:00:54;98318.31;;;1.91;100.00
66547;BME280;53400;50.364;14.874;2023-11-19T06:03:20;98318.16;;;1.99;100.00
66547;BME280;53400;50.364;14.874;2023-11-19T06:05:53;98294.59;;;2.04;100.00
66547;BME280;53400;50.364;14.874;2023-11-19T06:08:25;98296.47;;;2.10;100.00
66547;BME280;53400;50.364;14.874;2023-11-19T06:10:57;98282.56;;;1.95;100.00
66547;BME280;53400;50.364;14.874;2023-11-19T06:13:23;98279.75;;;2.03;100.00
66547;BME280;53400;50.364;14.874;2023-11-19T06:15:52;98281.16;;;1.99;100.00
66547;BME280;53400;50.364;14.874;2023-11-19T06:18:18;98285.44;;;2.00;100.00
66547;BME280;53400;50.364;14.874;2023-11-19T06:20:46;98290.88;;;1.92;100.00
66547;BME280;53400;50.364;14.874;2023-11-19T06:23:12;98293.34;;;2.00;100.00
66547;BME280;53400;50.364;14.874;2023-11-19T06:25:39;98295.75;;;1.88;100.00
66547;BME280;53400;50.364;14.874;2023-11-19T06:28:06;98290.38;;;1.68;100.00
66547;BME280;53400;50.364;14.874;2023-11-19T06:30:34;98294.91;;;1.81;100.00
66547;BME280;53400;50.364;14.874;2023-11-19T06:33:04;98290.84;;;1.85;100.00
66547;BME280;53400;50.364;14.874;2023-11-19T06:35:33;98277.75;;;1.64;100.00
66547;BME280;53400;50.364;14.874;2023-11-19T06:38:04;98270.59;;;1.51;100.00
66547;BME280;53400;50.364;14.874;2023-11-19T06:40:30;98268.78;;;1.51;100.00
66547;BME280;53400;50.364;14.874;2023-11-19T06:42:56;98282.25;;;1.70;100.00
66547;BME280;53400;50.364;14.874;2023-11-19T06:45:24;98276.38;;;1.68;100.00
66547;BME280;53400;50.364;14.874;2023-11-19T06:47:51;98294.91;;;1.81;100.00
66547;BME280;53400;50.364;14.874;2023-11-19T06:50:18;98290.03;;;1.84;100.00
66547;BME280;53400;50.364;14.874;2023-11-19T06:52:45;98291.25;;;1.82;100.00
66547;BME280;53400;50.364;14.874;2023-11-19T06:55:11;98289.06;;;1.51;100.00
66547;BME280;53400;50.364;14.874;2023-11-19T06:57:38;98284.94;;;1.35;100.00
66547;BME280;53400;50.364;14.874;2023-11-19T07:00:05;98273.19;;;1.37;100.00
66547;BME280;53400;50.364;14.874;2023-11-19T07:02:33;98278.72;;;1.49;100.00
66547;BME280;53400;50.364;14.874;2023-11-19T07:05:00;98274.41;;;1.42;100.00
66547;BME280;53400;50.364;14.874;2023-11-19T07:07:26;98273.63;;;1.48;100.00
66547;BME280;53400;50.364;14.874;2023-11-19T07:09:55;98268.63;;;1.59;100.00
66547;BME280;53400;50.364;14.874;2023-11-19T07:12:21;98267.69;;;1.80;100.00
66547;BME280;53400;50.364;14.874;2023-11-19T07:14:47;98272.22;;;1.52;100.00
66547;BME280;53400;50.364;14.874;2023-11-19T07:17:13;98265.56;;;1.56;100.00
66547;BME280;53400;50.364;14.874;2023-11-19T07:19:49;98262.41;;;1.74;100.00
66547;BME280;53400;50.364;14.874;2023-11-19T07:22:16;98254.41;;;1.60;100.00
66547;BME280;53400;50.364;14.874;2023-11-19T07:24:44;98263.84;;;1.83;100.00
66547;BME280;53400;50.364;14.874;2023-11-19T07:27:11;98262.41;;;1.80;100.00
66547;BME280;53400;50.364;14.874;2023-11-19T07:29:37;98255.34;;;1.94;100.00
66547;BME280;53400;50.364;14.874;2023-11-19T07:32:07;98256.38;;;2.00;100.00
66547;BME280;53400;50.364;14.874;2023-11-19T07:34:34;98250.38;;;2.33;100.00
66547;BME280;53400;50.364;14.874;2023-11-19T07:37:02;98246.72;;;2.47;100.00
66547;BME280;53400;50.364;14.874;2023-11-19T07:39:28;98247.53;;;2.54;100.00
66547;BME280;53400;50.364;14.874;2023-11-19T07:41:55;98233.88;;;2.30;100.00
66547;BME280;53400;50.364;14.874;2023-11-19T07:44:22;98245.47;;;2.29;100.00
66547;BME280;53400;50.364;14.874;2023-11-19T07:46:48;98243.81;;;2.15;100.00
66547;BME280;53400;50.364;14.874;2023-11-19T07:49:15;98246.84;;;2.05;100.00
66547;BME280;53400;50.364;14.874;2023-11-19T07:51:45;98242.19;;;2.14;100.00
66547;BME280;53400;50.364;14.874;2023-11-19T07:54:14;98252.38;;;2.24;100.00
66547;BME280;53400;50.364;14.874;2023-11-19T07:56:40;98262.13;;;2.10;100.00
66547;BME280;53400;50.364;14.874;2023-11-19T07:59:06;98262.56;;;2.34;100.00
66547;BME280;53400;50.364;14.874;2023-11-19T08:01:33;98266.22;;;2.39;100.00
66547;BME280;53400;50.364;14.874;2023-11-19T08:03:59;98258.53;;;2.44;100.00
66547;BME280;53400;50.364;14.874;2023-11-19T08:06:27;98241.63;;;2.39;100.00
66547;BME280;53400;50.364;14.874;2023-11-19T08:08:53;98243.25;;;2.33;100.00
66547;BME280;53400;50.364;14.874;2023-11-19T08:11:21;98238.19;;;2.38;100.00
66547;BME280;53400;50.364;14.874;2023-11-19T08:13:51;98237.78;;;2.41;100.00
66547;BME280;53400;50.364;14.874;2023-11-19T08:16:23;98239.59;;;2.41;100.00
66547;BME280;53400;50.364;14.874;2023-11-19T08:18:50;98232.50;;;2.74;100.00
66547;BME280;53400;50.364;14.874;2023-11-19T08:21:16;98228.22;;;2.60;100.00
66547;BME280;53400;50.364;14.874;2023-11-19T08:23:45;98214.00;;;2.74;100.00
66547;BME280;53400;50.364;14.874;2023-11-19T08:26:14;98219.47;;;2.60;100.00
66547;BME280;53400;50.364;14.874;2023-11-19T08:28:42;98221.69;;;2.49;100.00
66547;BME280;53400;50.364;14.874;2023-11-19T08:31:08;98222.34;;;2.65;100.00
66547;BME280;53400;50.364;14.874;2023-11-19T08:33:34;98212.97;;;2.62;100.00
66547;BME280;53400;50.364;14.874;2023-11-19T08:36:01;98219.09;;;2.56;100.00
66547;BME280;53400;50.364;14.874;2023-11-19T08:38:30;98213.38;;;2.59;100.00
66547;BME280;53400;50.364;14.874;2023-11-19T08:40:56;98216.22;;;2.58;100.00
66547;BME280;53400;50.364;14.874;2023-11-19T08:43:25;98210.09;;;2.70;100.00
66547;BME280;53400;50.364;14.874;2023-11-19T08:45:53;98208.09;;;2.72;100.00
66547;BME280;53400;50.364;14.874;2023-11-19T08:48:24;98209.72;;;2.80;100.00
66547;BME280;53400;50.364;14.874;2023-11-19T08:50:52;98197.91;;;2.83;100.00
66547;BME280;53400;50.364;14.874;2023-11-19T08:53:19;98195.84;;;3.05;100.00
66547;BME280;53400;50.364;14.874;2023-11-19T08:55:47;98198.72;;;2.63;100.00
66547;BME280;53400;50.364;14.874;2023-11-19T08:58:28;98189.78;;;2.78;100.00
66547;BME280;53400;50.364;14.874;2023-11-19T09:00:56;98223.53;;;3.02;100.00
66547;BME280;53400;50.364;14.874;2023-11-19T09:03:22;98204.44;;;2.80;100.00
66547;BME280;53400;50.364;14.874;2023-11-19T09:05:49;98203.41;;;2.74;100.00
66547;BME280;53400;50.364;14.874;2023-11-19T09:08:24;98212.38;;;2.80;100.00
66547;BME280;53400;50.364;14.874;2023-11-19T09:10:51;98207.66;;;2.82;100.00
66547;BME280;53400;50.364;14.874;2023-11-19T09:13:17;98210.69;;;3.06;100.00
66547;BME280;53400;50.364;14.874;2023-11-19T09:16:00;98210.47;;;3.07;100.00
66547;BME280;53400;50.364;14.874;2023-11-19T09:18:35;98206.25;;;2.86;100.00
66547;BME280;53400;50.364;14.874;2023-11-19T09:21:01;98210.28;;;3.02;100.00
66547;BME280;53400;50.364;14.874;2023-11-19T09:23:36;98208.06;;;2.92;100.00
66547;BME280;53400;50.364;14.874;2023-11-19T09:26:23;98196.09;;;2.83;100.00
66547;BME280;53400;50.364;14.874;2023-11-19T09:28:49;98198.72;;;2.90;100.00
66547;BME280;53400;50.364;14.874;2023-11-19T09:31:17;98188.47;;;3.13;100.00
66547;BME280;53400;50.364;14.874;2023-11-19T09:33:46;98172.59;;;3.20;100.00
66547;BME280;53400;50.364;14.874;2023-11-19T09:36:27;98172.53;;;3.40;100.00
66547;BME280;53400;50.364;14.874;2023-11-19T09:38:54;98174.16;;;3.41;100.00
66547;BME280;53400;50.364;14.874;2023-11-19T09:41:23;98175.84;;;3.29;100.00
66547;BME280;53400;50.364;14.874;2023-11-19T09:43:50;98171.03;;;3.57;100.00
66547;BME280;53400;50.364;14.874;2023-11-19T09:46:19;98163.09;;;3.57;100.00
66547;BME280;53400;50.364;14.874;2023-11-19T09:48:53;98154.78;;;3.47;100.00
66547;BME280;53400;50.364;14.874;2023-11-19T09:51:26;98159.53;;;3.32;100.00
66547;BME280;53400;50.364;14.874;2023-11-19T09:53:57;98152.91;;;3.54;100.00
66547;BME280;53400;50.364;14.874;2023-11-19T09:56:23;98151.31;;;3.47;100.00
66547;BME280;53400;50.364;14.874;2023-11-19T09:58:50;98150.72;;;3.44;100.00
66547;BME280;53400;50.364;14.874;2023-11-19T10:01:20;98147.84;;;3.46;100.00
66547;BME280;53400;50.364;14.874;2023-11-19T10:03:52;98140.53;;;3.80;100.00
66547;BME280;53400;50.364;14.874;2023-11-19T10:06:23;98142.00;;;3.31;100.00
66547;BME280;53400;50.364;14.874;2023-11-19T10:08:51;98158.97;;;3.61;100.00
66547;BME280;53400;50.364;14.874;2023-11-19T10:11:17;98158.69;;;3.31;100.00
66547;BME280;53400;50.364;14.874;2023-11-19T10:13:52;98169.53;;;3.68;100.00
66547;BME280;53400;50.364;14.874;2023-11-19T10:16:20;98162.53;;;3.87;100.00
66547;BME280;53400;50.364;14.874;2023-11-19T10:18:47;98146.91;;;3.72;100.00
66547;BME280;53400;50.364;14.874;2023-11-19T10:21:15;98152.16;;;4.10;100.00
66547;BME280;53400;50.364;14.874;2023-11-19T10:23:51;98139.25;;;3.57;100.00
66547;BME280;53400;50.364;14.874;2023-11-19T10:26:20;98156.28;;;3.75;100.00
66547;BME280;53400;50.364;14.874;2023-11-19T10:28:48;98153.16;;;3.84;100.00
66547;BME280;53400;50.364;14.874;2023-11-19T10:31:14;98156.53;;;3.98;100.00
66547;BME280;53400;50.364;14.874;2023-11-19T10:33:48;98166.03;;;4.12;100.00
66547;BME280;53400;50.364;14.874;2023-11-19T10:36:17;98152.38;;;3.77;100.00
66547;BME280;53400;50.364;14.874;2023-11-19T10:38:55;98153.16;;;3.46;100.00
66547;BME280;53400;50.364;14.874;2023-11-19T10:41:29;98149.53;;;3.34;100.00
66547;BME280;53400;50.364;14.874;2023-11-19T10:44:02;98144.06;;;3.22;100.00
66547;BME280;53400;50.364;14.874;2023-11-19T10:46:38;98148.75;;;3.27;100.00
66547;BME280;53400;50.364;14.874;2023-11-19T10:49:07;98137.97;;;3.21;100.00
66547;BME280;53400;50.364;14.874;2023-11-19T10:51:33;98133.91;;;3.19;100.00
66547;BME280;53400;50.364;14.874;2023-11-19T10:54:02;98127.38;;;3.28;100.00
66547;BME280;53400;50.364;14.874;2023-11-19T10:56:32;98129.84;;;3.61;100.00
66547;BME280;53400;50.364;14.874;2023-11-19T10:58:59;98126.34;;;3.67;100.00
66547;BME280;53400;50.364;14.874;2023-11-19T11:01:28;98130.53;;;3.50;100.00
66547;BME280;53400;50.364;14.874;2023-11-19T11:04:13;98142.09;;;3.56;100.00
66547;BME280;53400;50.364;14.874;2023-11-19T11:06:43;98143.63;;;3.38;100.00
66547;BME280;53400;50.364;14.874;2023-11-19T11:09:10;98132.16;;;3.51;100.00
66547;BME280;53400;50.364;14.874;2023-11-19T11:11:46;98135.91;;;3.75;100.00
66547;BME280;53400;50.364;14.874;2023-11-19T11:14:14;98131.47;;;3.69;100.00
66547;BME280;53400;50.364;14.874;2023-11-19T11:16:42;98125.00;;;3.90;100.00
66547;BME280;53400;50.364;14.874;2023-11-19T11:19:09;98111.50;;;3.98;100.00
66547;BME280;53400;50.364;14.874;2023-11-19T11:21:38;98117.06;;;3.90;100.00
66547;BME280;53400;50.364;14.874;2023-11-19T11:24:30;98118.84;;;3.64;100.00
66547;BME280;53400;50.364;14.874;2023-11-19T11:27:27;98110.97;;;3.83;100.00
66547;BME280;53400;50.364;14.874;2023-11-19T11:30:10;98112.78;;;3.57;100.00
66547;BME280;53400;50.364;14.874;2023-11-19T11:32:43;98099.00;;;3.42;100.00
66547;BME280;53400;50.364;14.874;2023-11-19T11:35:30;98091.38;;;3.59;100.00
66547;BME280;53400;50.364;14.874;2023-11-19T11:38:16;98080.31;;;4.00;100.00
66547;BME280;53400;50.364;14.874;2023-11-19T11:41:22;98085.88;;;3.60;100.00
66547;BME280;53400;50.364;14.874;2023-11-19T11:46:56;98096.16;;;3.75;100.00
66547;BME280;53400;50.364;14.874;2023-11-19T11:49:58;98094.41;;;3.94;100.00
66547;BME280;53400;50.364;14.874;2023-11-19T11:55:57;98100.25;;;3.78;100.00
66547;BME280;53400;50.364;14.874;2023-11-19T11:58:36;98104.50;;;3.47;100.00
66547;BME280;53400;50.364;14.874;2023-11-19T12:01:04;98102.63;;;3.54;100.00
66547;BME280;53400;50.364;14.874;2023-11-19T12:04:02;98101.28;;;3.70;100.00
66547;BME280;53400;50.364;14.874;2023-11-19T12:06:39;98093.56;;;3.68;100.00
66547;BME280;53400;50.364;14.874;2023-11-19T12:09:19;98097.81;;;4.01;100.00
66547;BME280;53400;50.364;14.874;2023-11-19T12:12:18;98097.84;;;3.70;100.00
66547;BME280;53400;50.364;14.874;2023-11-19T12:15:07;98102.41;;;3.87;100.00
66547;BME280;53400;50.364;14.874;2023-11-19T12:17:58;98099.34;;;4.16;100.00
66547;BME280;53400;50.364;14.874;2023-11-19T12:20:37;98104.81;;;4.21;100.00
66547;BME280;53400;50.364;14.874;2023-11-19T12:23:09;98093.91;;;4.29;100.00
66547;BME280;53400;50.364;14.874;2023-11-19T12:25:53;98087.03;;;4.46;100.00
66547;BME280;53400;50.364;14.874;2023-11-19T12:28:24;98084.28;;;4.59;100.00
66547;BME280;53400;50.364;14.874;2023-11-19T12:31:07;98080.97;;;4.21;100.00
66547;BME280;53400;50.364;14.874;2023-11-19T12:33:37;98076.81;;;4.50;100.00
66547;BME280;53400;50.364;14.874;2023-11-19T12:36:25;98066.19;;;4.06;100.00
66547;BME280;53400;50.364;14.874;2023-11-19T12:38:52;98054.94;;;4.11;100.00
66547;BME280;53400;50.364;14.874;2023-11-19T12:41:19;98046.00;;;4.30;100.00
66547;BME280;53400;50.364;14.874;2023-11-19T12:44:09;98042.88;;;4.15;100.00
66547;BME280;53400;50.364;14.874;2023-11-19T12:46:36;98048.97;;;4.16;100.00
66547;BME280;53400;50.364;14.874;2023-11-19T12:49:02;98055.91;;;4.17;100.00
66547;BME280;53400;50.364;14.874;2023-11-19T12:51:31;98056.06;;;3.97;100.00
66547;BME280;53400;50.364;14.874;2023-11-19T12:54:05;98053.69;;;3.88;100.00
66547;BME280;53400;50.364;14.874;2023-11-19T12:56:31;98047.03;;;3.79;100.00
66547;BME280;53400;50.364;14.874;2023-11-19T12:59:12;98043.69;;;4.16;100.00
66547;BME280;53400;50.364;14.874;2023-11-19T13:02:00;98031.47;;;4.14;100.00
66547;BME280;53400;50.364;14.874;2023-11-19T13:04:31;98022.94;;;4.31;100.00
66547;BME280;53400;50.364;14.874;2023-11-19T13:06:57;98016.63;;;4.50;100.00
66547;BME280;53400;50.364;14.874;2023-11-19T13:09:24;98023.31;;;4.34;100.00